sensor_id;sensor_type;location;lat;lon;timestamp;pressure;altitude;pressure_sealevel;temperature;humidity
82305;BME280;71914;47.382;8.168;2023-12-14T00:02:01;95876.47;;;4.77;94.18
82305;BME280;71914;47.382;8.168;2023-12-14T00:04:26;95888.97;;;4.84;94.57
82305;BME280;71914;47.382;8.168;2023-12-14T00:06:52;95890.72;;;4.83;94.15
82305;BME280;71914;47.382;8.168;2023-12-14T00:09:18;95890.63;;;4.85;92.75
82305;BME280;71914;47.382;8.168;2023-12-14T00:11:43;95889.31;;;4.79;92.94
82305;BME280;71914;47.382;8.168;2023-12-14T00:14:09;95893.69;;;4.78;93.20
82305;BME280;71914;47.382;8.168;2023-12-14T00:16:36;95903.69;;;4.83;91.93
82305;BME280;71914;47.382;8.168;2023-12-14T00:19:01;95905.09;;;4.87;92.54
82305;BME280;71914;47.382;8.168;2023-12-14T00:21:27;95901.69;;;4.87;92.99
82305;BME280;71914;47.382;8.168;2023-12-14T00:23:53;95911.81;;;4.90;93.44
82305;BME280;71914;47.382;8.168;2023-12-14T00:26:19;95907.00;;;4.85;94.19
82305;BME280;71914;47.382;8.168;2023-12-14T00:28:44;95910.66;;;4.82;91.13
82305;BME280;71914;47.382;8.168;2023-12-14T00:31:10;95918.47;;;4.82;91.16
82305;BME280;71914;47.382;8.168;2023-12-14T00:33:37;95915.41;;;4.77;91.57
82305;BME280;71914;47.382;8.168;2023-12-14T00:36:03;95917.28;;;4.75;90.20
82305;BME280;71914;47.382;8.168;2023-12-14T00:38:29;95929.31;;;4.76;90.70
82305;BME280;71914;47.382;8.168;2023-12-14T00:40:54;95926.13;;;4.73;89.10
82305;BME280;71914;47.382;8.168;2023-12-14T00:43:20;95934.75;;;4.73;91.41
82305;BME280;71914;47.382;8.168;2023-12-14T00:45:46;95931.91;;;4.76;91.48
82305;BME280;71914;47.382;8.168;2023-12-14T00:48:11;95928.84;;;4.82;92.12
82305;BME280;71914;47.382;8.168;2023-12-14T00:50:38;95938.28;;;4.84;91.41
82305;BME280;71914;47.382;8.168;2023-12-14T00:53:03;95941.69;;;4.84;92.64
82305;BME280;71914;47.382;8.168;2023-12-14T00:55:29;95940.41;;;4.78;90.14
82305;BME280;71914;47.382;8.168;2023-12-14T00:57:55;95941.09;;;4.80;91.95
82305;BME280;71914;47.382;8.168;2023-12-14T01:00:20;95944.03;;;4.87;91.81
82305;BME280;71914;47.382;8.168;2023-12-14T01:02:46;95954.00;;;4.82;91.08
82305;BME280;71914;47.382;8.168;2023-12-14T01:05:11;95958.81;;;4.87;92.57
82305;BME280;71914;47.382;8.168;2023-12-14T01:07:38;95958.47;;;4.80;91.64
82305;BME280;71914;47.382;8.168;2023-12-14T01:10:04;95964.00;;;4.87;89.19
82305;BME280;71914;47.382;8.168;2023-12-14T01:12:30;95959.78;;;4.74;91.44
82305;BME280;71914;47.382;8.168;2023-12-14T01:14:55;95971.44;;;4.69;91.63
82305;BME280;71914;47.382;8.168;2023-12-14T01:17:21;95962.59;;;4.71;92.35
82305;BME280;71914;47.382;8.168;2023-12-14T01:19:47;95971.78;;;4.75;92.80
82305;BME280;71914;47.382;8.168;2023-12-14T01:22:12;95978.16;;;4.71;90.51
82305;BME280;71914;47.382;8.168;2023-12-14T01:24:39;95974.53;;;4.62;91.68
82305;BME280;71914;47.382;8.168;2023-12-14T01:27:05;95986.53;;;4.63;91.71
82305;BME280;71914;47.382;8.168;2023-12-14T01:29:30;95979.59;;;4.64;93.36
82305;BME280;71914;47.382;8.168;2023-12-14T01:31:56;95990.66;;;4.66;93.46
82305;BME280;71914;47.382;8.168;2023-12-14T01:34:21;95990.34;;;4.71;93.57
82305;BME280;71914;47.382;8.168;2023-12-14T01:36:47;95995.16;;;4.75;91.84
82305;BME280;71914;47.382;8.168;2023-12-14T01:39:13;96006.13;;;4.79;92.42
82305;BME280;71914;47.382;8.168;2023-12-14T01:41:40;96006.47;;;4.86;90.83
82305;BME280;71914;47.382;8.168;2023-12-14T01:44:05;96010.03;;;4.85;92.68
82305;BME280;71914;47.382;8.168;2023-12-14T01:46:31;96010.84;;;4.85;92.81
82305;BME280;71914;47.382;8.168;2023-12-14T01:48:56;96013.69;;;4.82;92.02
82305;BME280;71914;47.382;8.168;2023-12-14T01:51:22;96010.97;;;4.84;91.31
82305;BME280;71914;47.382;8.168;2023-12-14T01:53:48;96010.97;;;4.84;92.64
82305;BME280;71914;47.382;8.168;2023-12-14T01:56:13;96019.94;;;4.79;92.18
82305;BME280;71914;47.382;8.168;2023-12-14T01:58:41;96021.34;;;4.84;91.38
82305;BME280;71914;47.382;8.168;2023-12-14T02:01:08;96026.56;;;4.84;90.21
82305;BME280;71914;47.382;8.168;2023-12-14T02:03:44;96029.59;;;4.77;90.66
82305;BME280;71914;47.382;8.168;2023-12-14T02:06:09;96040.00;;;4.77;89.54
82305;BME280;71914;47.382;8.168;2023-12-14T02:08:35;96036.59;;;4.77;91.97
82305;BME280;71914;47.382;8.168;2023-12-14T02:11:01;96041.78;;;4.77;92.35
82305;BME280;71914;47.382;8.168;2023-12-14T02:13:26;96048.72;;;4.76;90.70
82305;BME280;71914;47.382;8.168;2023-12-14T02:15:53;96056.63;;;4.86;88.00
82305;BME280;71914;47.382;8.168;2023-12-14T02:18:19;96060.06;;;4.87;88.00
82305;BME280;71914;47.382;8.168;2023-12-14T02:20:44;96059.56;;;4.59;89.33
82305;BME280;71914;47.382;8.168;2023-12-14T02:23:11;96068.88;;;4.50;91.75
82305;BME280;71914;47.382;8.168;2023-12-14T02:25:37;96070.78;;;4.48;92.25
82305;BME280;71914;47.382;8.168;2023-12-14T02:28:02;96063.25;;;4.68;93.44
82305;BME280;71914;47.382;8.168;2023-12-14T02:30:28;96062.41;;;4.67;92.26
82305;BME280;71914;47.382;8.168;2023-12-14T02:32:54;96064.19;;;4.67;91.88
82305;BME280;71914;47.382;8.168;2023-12-14T02:35:20;96068.06;;;4.72;92.76
82305;BME280;71914;47.382;8.168;2023-12-14T02:37:45;96066.69;;;4.79;92.74
82305;BME280;71914;47.382;8.168;2023-12-14T02:40:13;96069.72;;;4.73;91.47
82305;BME280;71914;47.382;8.168;2023-12-14T02:42:39;96075.41;;;4.78;89.73
82305;BME280;71914;47.382;8.168;2023-12-14T02:45:06;96080.22;;;4.72;89.94
82305;BME280;71914;47.382;8.168;2023-12-14T02:47:32;96080.81;;;4.75;90.48
82305;BME280;71914;47.382;8.168;2023-12-14T02:49:58;96075.53;;;4.77;88.80
82305;BME280;71914;47.382;8.168;2023-12-14T02:52:23;96085.44;;;4.72;91.31
82305;BME280;71914;47.382;8.168;2023-12-14T02:54:49;96092.25;;;4.61;90.26
82305;BME280;71914;47.382;8.168;2023-12-14T02:57:16;96090.81;;;4.69;92.73
82305;BME280;71914;47.382;8.168;2023-12-14T02:59:41;96098.13;;;4.63;93.43
82305;BME280;71914;47.382;8.168;2023-12-14T03:02:07;96097.19;;;4.64;93.18
82305;BME280;71914;47.382;8.168;2023-12-14T03:04:32;96100.84;;;4.62;92.06
82305;BME280;71914;47.382;8.168;2023-12-14T03:06:58;96100.38;;;4.57;92.59
82305;BME280;71914;47.382;8.168;2023-12-14T03:09:27;96106.88;;;4.62;93.17
82305;BME280;71914;47.382;8.168;2023-12-14T03:11:53;96105.22;;;4.73;94.05
82305;BME280;71914;47.382;8.168;2023-12-14T03:14:20;96109.84;;;4.80;94.01
82305;BME280;71914;47.382;8.168;2023-12-14T03:16:46;96110.09;;;4.89;93.21
82305;BME280;71914;47.382;8.168;2023-12-14T03:19:11;96118.22;;;4.84;91.41
82305;BME280;71914;47.382;8.168;2023-12-14T03:21:37;96120.00;;;4.84;91.48
82305;BME280;71914;47.382;8.168;2023-12-14T03:24:03;96129.34;;;4.86;90.37
82305;BME280;71914;47.382;8.168;2023-12-14T03:26:28;96126.00;;;4.84;91.88
82305;BME280;71914;47.382;8.168;2023-12-14T03:28:54;96132.97;;;4.84;92.42
82305;BME280;71914;47.382;8.168;2023-12-14T03:31:21;96134.66;;;4.85;92.92
82305;BME280;71914;47.382;8.168;2023-12-14T03:33:46;96137.59;;;4.91;93.53
82305;BME280;71914;47.382;8.168;2023-12-14T03:36:12;96143.84;;;5.00;90.56
82305;BME280;71914;47.382;8.168;2023-12-14T03:38:38;96133.09;;;4.93;91.41
82305;BME280;71914;47.382;8.168;2023-12-14T03:41:03;96144.06;;;4.86;91.87
82305;BME280;71914;47.382;8.168;2023-12-14T03:43:29;96149.72;;;4.91;93.60
82305;BME280;71914;47.382;8.168;2023-12-14T03:45:55;96149.53;;;4.94;93.52
82305;BME280;71914;47.382;8.168;2023-12-14T03:48:21;96160.47;;;4.97;91.94
82305;BME280;71914;47.382;8.168;2023-12-14T03:50:47;96163.31;;;4.94;93.18
82305;BME280;71914;47.382;8.168;2023-12-14T03:53:12;96166.84;;;4.93;93.25
82305;BME280;71914;47.382;8.168;2023-12-14T03:55:38;96168.75;;;4.91;90.77
82305;BME280;71914;47.382;8.168;2023-12-14T03:58:04;96174.66;;;4.82;89.80
82305;BME280;71914;47.382;8.168;2023-12-14T04:00:29;96173.38;;;4.52;90.58
82305;BME280;71914;47.382;8.168;2023-12-14T04:02:55;96177.72;;;4.40;91.82
82305;BME280;71914;47.382;8.168;2023-12-14T04:05:22;96182.78;;;4.42;93.97
82305;BME280;71914;47.382;8.168;2023-12-14T04:07:48;96195.31;;;4.48;93.13
82305;BME280;71914;47.382;8.168;2023-12-14T04:10:14;96193.69;;;4.58;92.13
82305;BME280;71914;47.382;8.168;2023-12-14T04:12:39;96197.09;;;4.59;93.19
82305;BME280;71914;47.382;8.168;2023-12-14T04:15:06;96205.81;;;4.58;93.58
82305;BME280;71914;47.382;8.168;2023-12-14T04:17:32;96203.00;;;4.61;94.06
82305;BME280;71914;47.382;8.168;2023-12-14T04:19:58;96217.50;;;4.52;93.21
82305;BME280;71914;47.382;8.168;2023-12-14T04:22:26;96215.59;;;4.54;93.63
82305;BME280;71914;47.382;8.168;2023-12-14T04:24:51;96219.91;;;4.67;94.83
82305;BME280;71914;47.382;8.168;2023-12-14T04:27:17;96224.63;;;4.73;94.56
82305;BME280;71914;47.382;8.168;2023-12-14T04:29:42;96227.44;;;4.70;92.94
82305;BME280;71914;47.382;8.168;2023-12-14T04:32:08;96233.56;;;4.69;94.23
82305;BME280;71914;47.382;8.168;2023-12-14T04:34:34;96239.25;;;4.74;92.42
82305;BME280;71914;47.382;8.168;2023-12-14T04:36:59;96239.72;;;4.68;93.30
82305;BME280;71914;47.382;8.168;2023-12-14T04:39:26;96237.94;;;4.68;91.95
82305;BME280;71914;47.382;8.168;2023-12-14T04:41:53;96245.25;;;4.63;92.17
82305;BME280;71914;47.382;8.168;2023-12-14T04:44:19;96243.47;;;4.63;92.09
82305;BME280;71914;47.382;8.168;2023-12-14T04:46:44;96249.13;;;4.57;92.89
82305;BME280;71914;47.382;8.168;2023-12-14T04:49:10;96253.84;;;4.63;94.29
82305;BME280;71914;47.382;8.168;2023-12-14T04:51:36;96265.09;;;4.75;95.14
82305;BME280;71914;47.382;8.168;2023-12-14T04:54:02;96267.25;;;4.81;94.48
82305;BME280;71914;47.382;8.168;2023-12-14T04:56:29;96272.00;;;4.88;94.21
82305;BME280;71914;47.382;8.168;2023-12-14T04:58:55;96279.34;;;4.94;90.90
82305;BME280;71914;47.382;8.168;2023-12-14T05:01:20;96273.44;;;4.92;89.91
82305;BME280;71914;47.382;8.168;2023-12-14T05:03:46;96282.94;;;4.80;90.44
82305;BME280;71914;47.382;8.168;2023-12-14T05:06:11;96287.03;;;4.71;91.28
82305;BME280;71914;47.382;8.168;2023-12-14T05:08:37;96305.44;;;4.68;91.67
82305;BME280;71914;47.382;8.168;2023-12-14T05:11:03;96293.81;;;4.61;91.58
82305;BME280;71914;47.382;8.168;2023-12-14T05:13:30;96300.34;;;4.67;92.07
82305;BME280;71914;47.382;8.168;2023-12-14T05:15:56;96299.63;;;4.64;91.53
82305;BME280;71914;47.382;8.168;2023-12-14T05:18:23;96301.41;;;4.64;91.47
82305;BME280;71914;47.382;8.168;2023-12-14T05:20:48;96306.81;;;4.61;91.83
82305;BME280;71914;47.382;8.168;2023-12-14T05:23:14;96305.06;;;4.61;93.67
82305;BME280;71914;47.382;8.168;2023-12-14T05:25:40;96311.00;;;4.75;94.59
82305;BME280;71914;47.382;8.168;2023-12-14T05:28:05;96314.97;;;4.92;95.82
82305;BME280;71914;47.382;8.168;2023-12-14T05:30:33;96322.19;;;4.99;96.43
82305;BME280;71914;47.382;8.168;2023-12-14T05:32:58;96321.75;;;5.06;95.90
82305;BME280;71914;47.382;8.168;2023-12-14T05:35:24;96335.78;;;5.03;93.44
82305;BME280;71914;47.382;8.168;2023-12-14T05:37:49;96335.31;;;4.98;92.00
82305;BME280;71914;47.382;8.168;2023-12-14T05:40:15;96341.53;;;4.95;91.33
82305;BME280;71914;47.382;8.168;2023-12-14T05:42:41;96348.50;;;4.95;91.04
82305;BME280;71914;47.382;8.168;2023-12-14T05:45:07;96346.69;;;4.84;91.30
82305;BME280;71914;47.382;8.168;2023-12-14T05:47:36;96361.13;;;4.75;91.55
82305;BME280;71914;47.382;8.168;2023-12-14T05:50:03;96351.91;;;4.71;91.77
82305;BME280;71914;47.382;8.168;2023-12-14T05:52:29;96363.56;;;4.65;93.10
82305;BME280;71914;47.382;8.168;2023-12-14T05:54:54;96366.19;;;4.65;93.43
82305;BME280;71914;47.382;8.168;2023-12-14T05:57:20;96374.06;;;4.64;93.29
82305;BME280;71914;47.382;8.168;2023-12-14T05:59:46;96377.28;;;4.68;92.85
82305;BME280;71914;47.382;8.168;2023-12-14T06:02:12;96385.91;;;4.68;94.15
82305;BME280;71914;47.382;8.168;2023-12-14T06:04:39;96388.50;;;4.68;94.23
82305;BME280;71914;47.382;8.168;2023-12-14T06:07:04;96389.81;;;4.74;94.22
82305;BME280;71914;47.382;8.168;2023-12-14T06:09:30;96397.59;;;4.74;93.98
82305;BME280;71914;47.382;8.168;2023-12-14T06:11:59;96399.91;;;4.90;92.50
82305;BME280;71914;47.382;8.168;2023-12-14T06:14:26;96413.13;;;4.87;90.75
82305;BME280;71914;47.382;8.168;2023-12-14T06:16:51;96418.25;;;4.75;91.29
82305;BME280;71914;47.382;8.168;2023-12-14T06:19:17;96419.00;;;4.64;91.44
82305;BME280;71914;47.382;8.168;2023-12-14T06:21:44;96425.97;;;4.64;91.68
82305;BME280;71914;47.382;8.168;2023-12-14T06:24:10;96431.38;;;4.61;92.35
82305;BME280;71914;47.382;8.168;2023-12-14T06:26:40;96441.34;;;4.54;92.36
82305;BME280;71914;47.382;8.168;2023-12-14T06:29:06;96448.84;;;4.59;92.23
82305;BME280;71914;47.382;8.168;2023-12-14T06:31:31;96450.28;;;4.63;91.96
82305;BME280;71914;47.382;8.168;2023-12-14T06:33:57;96462.84;;;4.69;94.19
82305;BME280;71914;47.382;8.168;2023-12-14T06:36:23;96461.66;;;4.73;94.70
82305;BME280;71914;47.382;8.168;2023-12-14T06:38:53;96467.38;;;4.78;95.24
82305;BME280;71914;47.382;8.168;2023-12-14T06:41:19;96465.41;;;4.82;92.29
82305;BME280;71914;47.382;8.168;2023-12-14T06:43:45;96468.03;;;4.69;92.11
82305;BME280;71914;47.382;8.168;2023-12-14T06:46:10;96469.47;;;4.60;92.26
82305;BME280;71914;47.382;8.168;2023-12-14T06:48:36;96485.06;;;4.60;92.08
82305;BME280;71914;47.382;8.168;2023-12-14T06:51:02;96493.56;;;4.62;91.58
82305;BME280;71914;47.382;8.168;2023-12-14T06:53:27;96492.03;;;4.60;91.64
82305;BME280;71914;47.382;8.168;2023-12-14T06:55:54;96488.69;;;4.58;91.81
82305;BME280;71914;47.382;8.168;2023-12-14T06:58:20;96496.69;;;4.55;93.26
82305;BME280;71914;47.382;8.168;2023-12-14T07:00:45;96496.69;;;4.55;92.86
82305;BME280;71914;47.382;8.168;2023-12-14T07:03:11;96502.41;;;4.60;92.95
82305;BME280;71914;47.382;8.168;2023-12-14T07:05:36;96501.03;;;4.67;91.60
82305;BME280;71914;47.382;8.168;2023-12-14T07:08:02;96506.56;;;5.37;98.12
82305;BME280;71914;47.382;8.168;2023-12-14T07:10:28;96513.22;;;5.04;96.86
82305;BME280;71914;47.382;8.168;2023-12-14T07:12:55;96517.81;;;4.87;92.89
82305;BME280;71914;47.382;8.168;2023-12-14T07:15:20;96513.25;;;4.78;92.41
82305;BME280;71914;47.382;8.168;2023-12-14T07:17:46;96520.75;;;4.70;91.54
82305;BME280;71914;47.382;8.168;2023-12-14T07:20:12;96523.97;;;4.73;90.62
82305;BME280;71914;47.382;8.168;2023-12-14T07:22:37;96534.66;;;4.69;90.70
82305;BME280;71914;47.382;8.168;2023-12-14T07:25:03;96534.16;;;4.63;91.06
82305;BME280;71914;47.382;8.168;2023-12-14T07:27:29;96541.09;;;4.63;90.88
82305;BME280;71914;47.382;8.168;2023-12-14T07:29:56;96538.63;;;4.61;90.50
82305;BME280;71914;47.382;8.168;2023-12-14T07:32:22;96537.19;;;4.57;90.09
82305;BME280;71914;47.382;8.168;2023-12-14T07:34:47;96542.97;;;4.61;90.41
82305;BME280;71914;47.382;8.168;2023-12-14T07:37:13;96554.50;;;4.57;90.96
82305;BME280;71914;47.382;8.168;2023-12-14T07:39:38;96559.69;;;4.57;91.63
82305;BME280;71914;47.382;8.168;2023-12-14T07:42:05;96555.00;;;4.49;91.64
82305;BME280;71914;47.382;8.168;2023-12-14T07:44:31;96547.66;;;4.56;90.89
82305;BME280;71914;47.382;8.168;2023-12-14T07:46:59;96558.34;;;4.64;90.55
82305;BME280;71914;47.382;8.168;2023-12-14T07:49:25;96555.88;;;4.62;90.25
82305;BME280;71914;47.382;8.168;2023-12-14T07:51:51;96561.34;;;4.58;90.42
82305;BME280;71914;47.382;8.168;2023-12-14T07:54:17;96570.59;;;4.62;90.70
82305;BME280;71914;47.382;8.168;2023-12-14T07:56:43;96574.84;;;4.63;90.18
82305;BME280;71914;47.382;8.168;2023-12-14T07:59:09;96577.44;;;4.63;90.33
82305;BME280;71914;47.382;8.168;2023-12-14T08:01:35;96588.75;;;4.62;90.98
82305;BME280;71914;47.382;8.168;2023-12-14T08:04:02;96584.31;;;4.64;91.06
82305;BME280;71914;47.382;8.168;2023-12-14T08:06:29;96595.50;;;4.64;90.53
82305;BME280;71914;47.382;8.168;2023-12-14T08:08:54;96592.69;;;4.80;90.29
82305;BME280;71914;47.382;8.168;2023-12-14T08:11:20;96598.00;;;4.79;90.39
82305;BME280;71914;47.382;8.168;2023-12-14T08:13:46;96609.31;;;4.78;89.79
82305;BME280;71914;47.382;8.168;2023-12-14T08:16:13;96613.47;;;4.80;89.54
82305;BME280;71914;47.382;8.168;2023-12-14T08:18:38;96617.72;;;4.81;89.49
82305;BME280;71914;47.382;8.168;2023-12-14T08:21:06;96625.91;;;4.75;90.60
82305;BME280;71914;47.382;8.168;2023-12-14T08:23:31;96636.31;;;4.75;91.47
82305;BME280;71914;47.382;8.168;2023-12-14T08:25:57;96641.41;;;4.77;90.23
82305;BME280;71914;47.382;8.168;2023-12-14T08:28:25;96645.56;;;4.92;89.39
82305;BME280;71914;47.382;8.168;2023-12-14T08:30:51;96654.19;;;4.93;88.54
82305;BME280;71914;47.382;8.168;2023-12-14T08:33:17;96651.91;;;4.88;88.75
82305;BME280;71914;47.382;8.168;2023-12-14T08:35:42;96662.59;;;4.84;88.90
82305;BME280;71914;47.382;8.168;2023-12-14T08:38:09;96660.13;;;4.82;88.29
82305;BME280;71914;47.382;8.168;2023-12-14T08:40:35;96664.69;;;4.78;91.13
82305;BME280;71914;47.382;8.168;2023-12-14T08:43:01;96674.56;;;4.86;92.91
82305;BME280;71914;47.382;8.168;2023-12-14T08:45:27;96678.59;;;4.90;93.18
82305;BME280;71914;47.382;8.168;2023-12-14T08:47:53;96688.25;;;5.01;88.51
82305;BME280;71914;47.382;8.168;2023-12-14T08:50:19;96687.72;;;4.96;88.61
82305;BME280;71914;47.382;8.168;2023-12-14T08:52:44;96686.78;;;4.84;89.11
82305;BME280;71914;47.382;8.168;2023-12-14T08:55:11;96695.44;;;4.85;89.05
82305;BME280;71914;47.382;8.168;2023-12-14T08:57:38;96693.53;;;4.87;89.13
82305;BME280;71914;47.382;8.168;2023-12-14T09:00:04;96705.81;;;4.85;89.39
82305;BME280;71914;47.382;8.168;2023-12-14T09:02:31;96716.59;;;4.78;89.69
82305;BME280;71914;47.382;8.168;2023-12-14T09:04:57;96717.25;;;4.82;89.18
82305;BME280;71914;47.382;8.168;2023-12-14T09:07:23;96719.81;;;4.95;88.59
82305;BME280;71914;47.382;8.168;2023-12-14T09:09:48;96730.16;;;5.85;97.44
82305;BME280;71914;47.382;8.168;2023-12-14T09:12:15;96726.91;;;5.44;91.20
82305;BME280;71914;47.382;8.168;2023-12-14T09:14:41;96738.44;;;5.27;88.93
82305;BME280;71914;47.382;8.168;2023-12-14T09:17:06;96731.50;;;5.15;87.94
82305;BME280;71914;47.382;8.168;2023-12-14T09:19:32;96743.84;;;5.11;89.14
82305;BME280;71914;47.382;8.168;2023-12-14T09:21:58;96750.19;;;5.07;89.46
82305;BME280;71914;47.382;8.168;2023-12-14T09:24:24;96745.91;;;5.06;88.74
82305;BME280;71914;47.382;8.168;2023-12-14T09:26:49;96753.84;;;5.18;89.33
82305;BME280;71914;47.382;8.168;2023-12-14T09:29:16;96759.63;;;5.21;87.97
82305;BME280;71914;47.382;8.168;2023-12-14T09:31:42;96763.28;;;5.19;87.14
82305;BME280;71914;47.382;8.168;2023-12-14T09:34:08;96770.75;;;5.10;88.64
82305;BME280;71914;47.382;8.168;2023-12-14T09:36:34;96772.81;;;5.05;87.04
82305;BME280;71914;47.382;8.168;2023-12-14T09:38:59;96779.91;;;5.03;88.16
82305;BME280;71914;47.382;8.168;2023-12-14T09:41:25;96783.44;;;5.02;88.96
82305;BME280;71914;47.382;8.168;2023-12-14T09:43:51;96798.91;;;5.04;90.09
82305;BME280;71914;47.382;8.168;2023-12-14T09:46:18;96791.13;;;5.17;92.35
82305;BME280;71914;47.382;8.168;2023-12-14T09:48:46;96794.25;;;5.22;89.96
82305;BME280;71914;47.382;8.168;2023-12-14T09:51:12;96797.50;;;5.25;88.20
82305;BME280;71914;47.382;8.168;2023-12-14T09:53:38;96800.78;;;5.14;88.28
82305;BME280;71914;47.382;8.168;2023-12-14T09:56:05;96803.47;;;5.13;88.43
82305;BME280;71914;47.382;8.168;2023-12-14T09:58:31;96808.91;;;5.10;88.05
82305;BME280;71914;47.382;8.168;2023-12-14T10:00:57;96808.03;;;5.09;88.33
82305;BME280;71914;47.382;8.168;2023-12-14T10:03:27;96806.28;;;5.10;90.59
82305;BME280;71914;47.382;8.168;2023-12-14T10:05:54;96811.16;;;5.14;90.45
82305;BME280;71914;47.382;8.168;2023-12-14T10:08:20;96809.44;;;5.28;88.69
82305;BME280;71914;47.382;8.168;2023-12-14T10:10:47;96815.13;;;5.33;88.04
82305;BME280;71914;47.382;8.168;2023-12-14T10:13:14;96811.19;;;5.27;87.21
82305;BME280;71914;47.382;8.168;2023-12-14T10:15:40;96808.59;;;5.27;87.58
82305;BME280;71914;47.382;8.168;2023-12-14T10:18:06;96818.16;;;5.27;87.24
82305;BME280;71914;47.382;8.168;2023-12-14T10:20:33;96819.09;;;5.26;87.62
82305;BME280;71914;47.382;8.168;2023-12-14T10:22:59;96828.47;;;5.28;87.28
82305;BME280;71914;47.382;8.168;2023-12-14T10:25:24;96821.59;;;5.27;87.49
82305;BME280;71914;47.382;8.168;2023-12-14T10:27:51;96823.47;;;5.25;87.14
82305;BME280;71914;47.382;8.168;2023-12-14T10:30:19;96832.09;;;5.26;87.56
82305;BME280;71914;47.382;8.168;2023-12-14T10:32:47;96830.94;;;5.30;87.04
82305;BME280;71914;47.382;8.168;2023-12-14T10:35:12;96834.91;;;5.36;86.85
82305;BME280;71914;47.382;8.168;2023-12-14T10:37:40;96829.63;;;5.37;87.22
82305;BME280;71914;47.382;8.168;2023-12-14T10:40:07;96834.47;;;5.29;87.79
82305;BME280;71914;47.382;8.168;2023-12-14T10:42:36;96836.88;;;5.32;87.87
82305;BME280;71914;47.382;8.168;2023-12-14T10:45:02;96841.88;;;5.35;87.22
82305;BME280;71914;47.382;8.168;2023-12-14T10:47:28;96845.28;;;5.36;87.56
82305;BME280;71914;47.382;8.168;2023-12-14T10:49:55;96846.25;;;5.35;87.16
82305;BME280;71914;47.382;8.168;2023-12-14T10:52:23;96853.19;;;5.34;88.30
82305;BME280;71914;47.382;8.168;2023-12-14T10:54:53;96860.88;;;5.36;88.79
82305;BME280;71914;47.382;8.168;2023-12-14T10:57:22;96856.84;;;5.44;87.79
82305;BME280;71914;47.382;8.168;2023-12-14T10:59:48;96861.66;;;5.51;86.65
82305;BME280;71914;47.382;8.168;2023-12-14T11:02:14;96862.28;;;5.54;86.49
82305;BME280;71914;47.382;8.168;2023-12-14T11:04:54;96864.34;;;5.49;87.46
82305;BME280;71914;47.382;8.168;2023-12-14T11:07:43;96877.34;;;5.49;87.34
82305;BME280;71914;47.382;8.168;2023-12-14T11:10:10;96887.53;;;5.52;87.44
82305;BME280;71914;47.382;8.168;2023-12-14T11:12:37;96884.88;;;5.92;94.88
82305;BME280;71914;47.382;8.168;2023-12-14T11:15:03;96887.25;;;5.82;88.28
82305;BME280;71914;47.382;8.168;2023-12-14T11:17:29;96882.03;;;5.70;87.93
82305;BME280;71914;47.382;8.168;2023-12-14T11:19:55;96886.91;;;5.61;87.90
82305;BME280;71914;47.382;8.168;2023-12-14T11:22:26;96885.59;;;5.69;87.06
82305;BME280;71914;47.382;8.168;2023-12-14T11:24:54;96884.75;;;5.68;86.69
82305;BME280;71914;47.382;8.168;2023-12-14T11:27:26;96891.19;;;5.62;87.31
82305;BME280;71914;47.382;8.168;2023-12-14T11:29:52;96890.56;;;5.59;86.94
82305;BME280;71914;47.382;8.168;2023-12-14T11:32:18;96895.97;;;5.56;87.39
82305;BME280;71914;47.382;8.168;2023-12-14T11:34:46;96889.81;;;5.57;87.09
82305;BME280;71914;47.382;8.168;2023-12-14T11:37:12;96899.50;;;5.55;87.87
82305;BME280;71914;47.382;8.168;2023-12-14T11:39:38;96900.22;;;5.57;87.84
82305;BME280;71914;47.382;8.168;2023-12-14T11:42:04;96903.34;;;5.62;87.69
82305;BME280;71914;47.382;8.168;2023-12-14T11:44:34;96893.16;;;5.59;86.73
82305;BME280;71914;47.382;8.168;2023-12-14T11:47:00;96905.00;;;5.63;87.61
82305;BME280;71914;47.382;8.168;2023-12-14T11:49:26;96909.81;;;5.69;87.14
82305;BME280;71914;47.382;8.168;2023-12-14T11:51:52;96901.06;;;5.70;86.94
82305;BME280;71914;47.382;8.168;2023-12-14T11:54:18;96917.91;;;5.77;86.53
82305;BME280;71914;47.382;8.168;2023-12-14T11:56:46;96925.63;;;5.79;88.39
82305;BME280;71914;47.382;8.168;2023-12-14T11:59:11;96921.69;;;5.86;90.36
82305;BME280;71914;47.382;8.168;2023-12-14T12:01:39;96914.28;;;5.93;86.47
82305;BME280;71914;47.382;8.168;2023-12-14T12:04:08;96916.69;;;5.96;86.85
82305;BME280;71914;47.382;8.168;2023-12-14T12:06:34;96923.97;;;5.91;86.87
82305;BME280;71914;47.382;8.168;2023-12-14T12:08:59;96923.25;;;5.89;86.59
82305;BME280;71914;47.382;8.168;2023-12-14T12:11:25;96924.06;;;5.89;86.52
82305;BME280;71914;47.382;8.168;2023-12-14T12:13:53;96923.53;;;5.84;87.09
82305;BME280;71914;47.382;8.168;2023-12-14T12:16:19;96928.56;;;5.87;87.22
82305;BME280;71914;47.382;8.168;2023-12-14T12:18:46;96928.56;;;5.87;87.45
82305;BME280;71914;47.382;8.168;2023-12-14T12:21:11;96931.75;;;5.91;87.43
82305;BME280;71914;47.382;8.168;2023-12-14T12:23:37;96931.34;;;5.97;87.03
82305;BME280;71914;47.382;8.168;2023-12-14T12:26:03;96933.06;;;5.98;86.76
82305;BME280;71914;47.382;8.168;2023-12-14T12:28:30;96936.28;;;6.02;86.92
82305;BME280;71914;47.382;8.168;2023-12-14T12:30:56;96934.28;;;6.05;86.72
82305;BME280;71914;47.382;8.168;2023-12-14T12:33:21;96936.91;;;6.05;86.34
82305;BME280;71914;47.382;8.168;2023-12-14T12:35:48;96937.75;;;6.06;86.42
82305;BME280;71914;47.382;8.168;2023-12-14T12:38:14;96947.22;;;6.07;86.39
82305;BME280;71914;47.382;8.168;2023-12-14T12:40:41;96952.09;;;6.11;85.41
82305;BME280;71914;47.382;8.168;2023-12-14T12:43:07;96948.69;;;6.11;85.83
82305;BME280;71914;47.382;8.168;2023-12-14T12:45:33;96948.16;;;6.06;85.90
82305;BME280;71914;47.382;8.168;2023-12-14T12:47:58;96950.75;;;6.06;86.52
82305;BME280;71914;47.382;8.168;2023-12-14T12:50:24;96949.91;;;6.05;85.04
82305;BME280;71914;47.382;8.168;2023-12-14T12:52:51;96959.91;;;6.11;85.97
82305;BME280;71914;47.382;8.168;2023-12-14T12:55:16;96959.69;;;6.14;86.02
82305;BME280;71914;47.382;8.168;2023-12-14T12:57:42;96966.66;;;6.14;86.02
82305;BME280;71914;47.382;8.168;2023-12-14T13:00:09;96964.19;;;6.12;85.76
82305;BME280;71914;47.382;8.168;2023-12-14T13:02:36;96962.28;;;6.14;85.84
82305;BME280;71914;47.382;8.168;2023-12-14T13:05:02;96973.25;;;6.07;86.93